Time;durP1;ratioP1;P1;durP2;ratioP2;P2;SDS_P1;SDS_P2;PMS_P1;PMS_P2;Temp;Humidity;BMP_temperature;BMP_pressure;BME280_temperature;BME280_humidity;BME280_pressure;Samples;Min_cycle;Max_cycle;Signal;HPM_P1;HPM_P2
2021/05/26 00:00:59;;;;;;;3.40;1.90;;;10.50;99.90;;;;;;5080972;28;20401;-81
2021/05/26 00:03:26;;;;;;;9.03;1.83;;;10.60;99.90;;;;;;5063856;28;20179;-80
2021/05/26 00:05:51;;;;;;;2.33;1.50;;;10.60;99.90;;;;;;5081495;28;20233;-81
2021/05/26 00:08:35;;;;;;;3.77;1.67;;;10.70;99.90;;;;;;5081199;28;20967;-78
2021/05/26 00:11:04;;;;;;;2.43;1.70;;;10.70;99.90;;;;;;5071150;28;20164;-79
2021/05/26 00:13:32;;;;;;;4.50;1.67;;;10.50;99.90;;;;;;5070450;28;20512;-78
2021/05/26 00:15:59;;;;;;;1.52;1.38;;;10.70;99.90;;;;;;5069877;28;20441;-79
2021/05/26 00:18:24;;;;;;;3.30;1.93;;;10.50;99.90;;;;;;5065956;28;20201;-81
2021/05/26 00:20:53;;;;;;;2.30;2.10;;;10.60;99.90;;;;;;5054453;28;20452;-81
2021/05/26 00:23:20;;;;;;;2.03;1.63;;;10.50;99.90;;;;;;5073266;28;20410;-81
2021/05/26 00:25:46;;;;;;;4.30;1.57;;;10.50;99.90;;;;;;5063266;28;20409;-82
2021/05/26 00:28:15;;;;;;;1.73;1.63;;;10.40;99.90;;;;;;5065520;28;20451;-81
2021/05/26 00:30:46;;;;;;;1.50;1.40;;;10.10;99.90;;;;;;5094567;28;20422;-80
2021/05/26 00:33:13;;;;;;;2.03;1.73;;;10.20;99.90;;;;;;5061809;28;20397;-81
2021/05/26 00:35:38;;;;;;;2.17;1.70;;;10.20;99.90;;;;;;5065143;28;20506;-81
2021/05/26 00:38:05;;;;;;;3.80;2.60;;;10.20;99.90;;;;;;5042554;28;20530;-81
2021/05/26 00:40:30;;;;;;;2.83;2.00;;;10.30;99.90;;;;;;5043373;28;20303;-81
2021/05/26 00:42:56;;;;;;;1.90;1.47;;;10.30;99.90;;;;;;5059434;28;20402;-81
2021/05/26 00:45:22;;;;;;;2.50;1.50;;;10.10;99.90;;;;;;5042653;28;20198;-81
2021/05/26 00:47:56;;;;;;;5.13;1.87;;;10.10;99.90;;;;;;5046640;28;20214;-81
2021/05/26 00:50:33;;;;;;;2.33;2.13;;;10.20;99.90;;;;;;5050952;28;20464;-79
2021/05/26 00:53:04;;;;;;;1.63;1.53;;;10.10;99.90;;;;;;5048775;28;20403;-79
2021/05/26 00:55:31;;;;;;;2.30;2.00;;;10.30;99.90;;;;;;5029825;28;20409;-81
2021/05/26 00:57:59;;;;;;;2.63;2.10;;;10.30;99.90;;;;;;5041230;28;20781;-81
2021/05/26 01:00:26;;;;;;;1.30;1.20;;;10.40;99.90;;;;;;5040261;28;20807;-81
2021/05/26 01:02:53;;;;;;;2.60;1.43;;;10.50;99.90;;;;;;5038813;28;20418;-81
2021/05/26 01:05:21;;;;;;;3.37;1.97;;;10.40;99.90;;;;;;5039889;28;20752;-81
2021/05/26 01:07:51;;;;;;;1.50;1.40;;;10.40;99.90;;;;;;5052663;28;20453;-81
2021/05/26 01:10:24;;;;;;;1.67;1.47;;;10.40;99.90;;;;;;5086929;28;20807;-81
2021/05/26 01:12:50;;;;;;;2.40;2.20;;;10.40;99.90;;;;;;5079858;28;20410;-81
2021/05/26 01:15:16;;;;;;;3.00;2.20;;;10.50;99.90;;;;;;5029314;28;20424;-81
2021/05/26 01:17:43;;;;;;;1.93;1.83;;;10.50;99.90;;;;;;5047157;28;20414;-81
2021/05/26 01:20:18;;;;;;;1.80;1.70;;;10.50;99.90;;;;;;5076949;28;20429;-78
2021/05/26 01:22:44;;;;;;;5.17;2.20;;;10.50;99.90;;;;;;5062600;28;20401;-81
2021/05/26 01:25:10;;;;;;;1.83;1.73;;;10.40;99.90;;;;;;5096921;28;20489;-82
2021/05/26 01:27:38;;;;;;;2.40;2.00;;;10.30;99.90;;;;;;5096908;28;20517;-81
2021/05/26 01:30:07;;;;;;;1.77;1.67;;;10.50;99.90;;;;;;5095187;28;20432;-81
2021/05/26 01:32:47;;;;;;;1.60;1.47;;;10.50;99.90;;;;;;5068061;28;20409;-81
2021/05/26 01:35:15;;;;;;;6.57;2.13;;;10.60;99.90;;;;;;5090832;28;20401;-81
2021/05/26 01:37:46;;;;;;;1.50;1.40;;;10.60;99.90;;;;;;5071962;28;20398;-81
2021/05/26 01:40:15;;;;;;;3.13;1.57;;;10.50;99.90;;;;;;5084429;28;20423;-80
2021/05/26 01:42:41;;;;;;;2.10;1.53;;;10.40;99.90;;;;;;5067663;28;20432;-81
2021/05/26 01:45:10;;;;;;;1.90;1.80;;;10.60;99.90;;;;;;5084628;28;20452;-81
2021/05/26 01:47:36;;;;;;;1.60;1.50;;;10.40;99.90;;;;;;5083897;28;20506;-81
2021/05/26 01:50:04;;;;;;;2.40;1.60;;;10.60;99.90;;;;;;5085333;28;20390;-81
2021/05/26 01:52:30;;;;;;;2.20;1.73;;;10.40;99.90;;;;;;5050575;28;20390;-81
2021/05/26 01:54:57;;;;;;;2.90;2.13;;;10.40;99.90;;;;;;5085219;28;20485;-81
2021/05/26 01:57:23;;;;;;;1.73;1.60;;;10.50;99.90;;;;;;5084227;28;20398;-81
2021/05/26 01:59:49;;;;;;;3.00;1.73;;;10.50;99.90;;;;;;5083856;28;20400;-80
2021/05/26 02:02:15;;;;;;;4.03;1.30;;;10.30;99.90;;;;;;5084076;28;20160;-81
2021/05/26 02:04:41;;;;;;;4.50;1.90;;;10.30;99.90;;;;;;5051121;28;20522;-81
2021/05/26 02:07:09;;;;;;;2.20;1.47;;;10.40;99.90;;;;;;5066851;28;20174;-81
2021/05/26 02:09:39;;;;;;;3.40;1.60;;;10.30;99.90;;;;;;5068899;28;20517;-81
2021/05/26 02:12:22;;;;;;;2.87;1.60;;;10.40;99.90;;;;;;5066999;28;20400;-81
2021/05/26 02:14:52;;;;;;;2.30;1.73;;;10.40;99.90;;;;;;5083513;28;20392;-81
2021/05/26 02:17:19;;;;;;;2.17;1.70;;;10.20;99.90;;;;;;5067588;28;20392;-81
2021/05/26 02:19:46;;;;;;;11.47;2.50;;;10.10;99.90;;;;;;5088362;28;20390;-79
2021/05/26 02:22:17;;;;;;;2.10;1.90;;;10.20;99.90;;;;;;5076845;28;20918;-79
2021/05/26 02:24:45;;;;;;;2.30;2.10;;;10.20;99.90;;;;;;5070112;28;20445;-81
2021/05/26 02:27:11;;;;;;;3.10;2.57;;;10.00;99.90;;;;;;5086960;28;20419;-79
2021/05/26 02:29:37;;;;;;;2.40;1.60;;;10.20;99.90;;;;;;5059342;28;20394;-79
2021/05/26 02:32:04;;;;;;;1.93;1.50;;;10.20;99.90;;;;;;5092093;28;20401;-80
2021/05/26 02:34:32;;;;;;;2.40;1.90;;;10.10;99.90;;;;;;5089447;28;20919;-81
2021/05/26 02:36:58;;;;;;;1.90;1.70;;;9.90;99.90;;;;;;5048953;28;20401;-81
2021/05/26 02:39:24;;;;;;;3.53;1.93;;;9.90;99.90;;;;;;5085563;28;20404;-81
2021/05/26 02:41:50;;;;;;;3.13;1.43;;;9.80;99.90;;;;;;5084644;28;20400;-81
2021/05/26 02:44:17;;;;;;;3.07;2.43;;;10.00;99.90;;;;;;5084314;28;20452;-81
2021/05/26 02:46:44;;;;;;;4.00;2.13;;;10.00;99.90;;;;;;5102111;28;20422;-81
2021/05/26 02:49:11;;;;;;;3.03;2.20;;;9.90;99.90;;;;;;5084415;28;20789;-81
2021/05/26 02:51:37;;;;;;;2.20;2.00;;;9.90;99.90;;;;;;5101549;28;20401;-81
2021/05/26 02:54:07;;;;;;;2.67;1.70;;;9.80;99.90;;;;;;5069776;28;20397;-81
2021/05/26 02:56:37;;;;;;;1.67;1.57;;;10.00;99.90;;;;;;5084349;28;20409;-81
2021/05/26 02:59:06;;;;;;;2.93;2.20;;;10.10;99.90;;;;;;5068240;28;20412;-81
2021/05/26 03:01:34;;;;;;;2.07;1.90;;;9.90;99.90;;;;;;5065487;28;20410;-81
2021/05/26 03:04:01;;;;;;;3.07;1.87;;;9.90;99.90;;;;;;5063648;28;20850;-80
2021/05/26 03:06:27;;;;;;;3.13;1.97;;;10.00;99.90;;;;;;5049047;28;20409;-81
2021/05/26 03:08:52;;;;;;;3.50;2.13;;;9.90;99.90;;;;;;5081440;28;20517;-81
2021/05/26 03:11:18;;;;;;;3.80;2.47;;;9.80;99.90;;;;;;5048364;28;20721;-81
2021/05/26 03:13:47;;;;;;;2.00;1.90;;;9.80;99.90;;;;;;5081812;28;20158;-82
2021/05/26 03:16:13;;;;;;;3.50;2.37;;;10.00;99.90;;;;;;5082367;28;20402;-82
2021/05/26 03:18:40;;;;;;;3.37;2.57;;;10.20;99.90;;;;;;5062761;28;20188;-81
2021/05/26 03:21:07;;;;;;;2.20;2.00;;;10.20;99.90;;;;;;5061421;28;20192;-82
2021/05/26 03:23:33;;;;;;;2.00;1.67;;;10.30;99.90;;;;;;5032713;28;20486;-81
2021/05/26 03:25:58;;;;;;;4.10;2.00;;;10.10;99.90;;;;;;5074012;28;20398;-81
2021/05/26 03:28:24;;;;;;;3.20;2.43;;;10.00;99.90;;;;;;5058654;28;20445;-81
2021/05/26 03:30:50;;;;;;;3.43;2.37;;;10.20;99.90;;;;;;5096211;28;20179;-81
2021/05/26 03:33:17;;;;;;;2.17;2.00;;;10.30;99.90;;;;;;5075229;28;20434;-81
2021/05/26 03:35:44;;;;;;;2.03;1.77;;;10.30;99.90;;;;;;5065802;28;20184;-81
2021/05/26 03:38:11;;;;;;;3.23;2.07;;;10.30;99.90;;;;;;5031594;28;20394;-81
2021/05/26 03:40:38;;;;;;;2.20;2.00;;;10.30;99.90;;;;;;5081358;28;20886;-81
2021/05/26 03:43:04;;;;;;;3.03;2.23;;;10.20;99.90;;;;;;5064129;28;20393;-81
2021/05/26 03:45:31;;;;;;;3.00;2.70;;;10.20;99.90;;;;;;5064642;28;20460;-81
2021/05/26 03:47:58;;;;;;;3.27;1.87;;;10.10;99.90;;;;;;5047375;28;20461;-80
2021/05/26 03:50:24;;;;;;;5.80;2.10;;;10.20;99.90;;;;;;5064459;28;20484;-79
2021/05/26 03:52:51;;;;;;;3.80;2.50;;;10.30;99.90;;;;;;5047522;28;20413;-80
2021/05/26 03:55:19;;;;;;;2.40;1.80;;;10.30;99.90;;;;;;5080301;28;20393;-80
2021/05/26 03:57:46;;;;;;;6.30;2.23;;;10.10;99.90;;;;;;5064060;28;20815;-82
2021/05/26 04:00:15;;;;;;;1.93;1.67;;;10.00;99.90;;;;;;5047594;28;20499;-81
2021/05/26 04:02:43;;;;;;;2.20;2.10;;;10.00;99.90;;;;;;5078496;28;20437;-81
2021/05/26 04:05:12;;;;;;;2.70;1.83;;;10.10;99.90;;;;;;5081859;28;20390;-81
2021/05/26 04:07:39;;;;;;;2.93;1.93;;;10.30;99.90;;;;;;5082642;28;20468;-81
2021/05/26 04:10:06;;;;;;;1.70;1.60;;;10.20;99.90;;;;;;5046933;28;20493;-81
2021/05/26 04:12:32;;;;;;;1.87;1.63;;;10.10;99.90;;;;;;5059965;28;20407;-81
2021/05/26 04:15:02;;;;;;;2.47;2.23;;;10.20;99.90;;;;;;5064080;28;20421;-81
2021/05/26 04:17:31;;;;;;;2.40;1.97;;;10.30;99.90;;;;;;5063283;28;20555;-81
2021/05/26 04:20:03;;;;;;;4.67;2.37;;;10.40;99.90;;;;;;5047050;28;20413;-81
2021/05/26 04:22:31;;;;;;;3.30;2.93;;;10.10;99.90;;;;;;5080025;28;20290;-81
2021/05/26 04:25:00;;;;;;;4.23;2.17;;;10.10;99.90;;;;;;5062890;28;20479;-81
2021/05/26 04:27:26;;;;;;;2.00;1.90;;;10.30;99.90;;;;;;5046735;28;20485;-81
2021/05/26 04:29:53;;;;;;;8.93;3.13;;;10.20;99.90;;;;;;5046510;28;20416;-81
2021/05/26 04:32:19;;;;;;;3.10;2.10;;;9.90;99.90;;;;;;5062447;28;20824;-81
2021/05/26 04:34:44;;;;;;;2.33;2.13;;;10.00;99.90;;;;;;5062595;28;20497;-81
2021/05/26 04:37:17;;;;;;;2.60;1.90;;;10.00;99.90;;;;;;5032142;28;20697;-81
2021/05/26 04:39:44;;;;;;;3.10;2.90;;;10.10;99.90;;;;;;5062936;28;20433;-81
2021/05/26 04:42:10;;;;;;;1.67;1.57;;;10.30;99.90;;;;;;5085787;28;20540;-81
2021/05/26 04:44:36;;;;;;;2.60;2.07;;;10.30;99.90;;;;;;5080386;28;20942;-82
2021/05/26 04:47:02;;;;;;;2.00;1.77;;;10.20;99.90;;;;;;5062635;28;20390;-80
2021/05/26 04:49:28;;;;;;;4.20;2.17;;;10.10;99.90;;;;;;5077548;28;20207;-80
2021/05/26 04:51:56;;;;;;;3.53;2.20;;;10.10;99.90;;;;;;5062948;28;20930;-80
2021/05/26 04:54:22;;;;;;;2.30;1.83;;;10.10;99.90;;;;;;5063602;28;20397;-81
2021/05/26 04:56:48;;;;;;;4.70;2.70;;;10.20;99.90;;;;;;5080717;28;20390;-80
2021/05/26 04:59:13;;;;;;;1.97;1.83;;;10.40;99.90;;;;;;5079520;28;20390;-81
2021/05/26 05:01:39;;;;;;;2.50;1.70;;;10.20;99.90;;;;;;5063202;28;20165;-81
2021/05/26 05:04:05;;;;;;;2.33;1.90;;;10.30;99.90;;;;;;5081434;28;20266;-82
2021/05/26 05:06:31;;;;;;;3.07;2.03;;;10.20;99.90;;;;;;5082748;28;20168;-82
2021/05/26 05:08:57;;;;;;;4.43;1.70;;;9.90;99.90;;;;;;5083843;28;20464;-81
2021/05/26 05:11:23;;;;;;;6.47;2.10;;;10.20;99.90;;;;;;5083200;28;20862;-81
2021/05/26 05:13:50;;;;;;;3.30;2.10;;;10.10;99.90;;;;;;5092408;28;20148;-81
2021/05/26 05:16:16;;;;;;;2.30;2.10;;;9.90;99.90;;;;;;5095299;28;20211;-82
2021/05/26 05:18:42;;;;;;;1.67;1.57;;;9.90;99.90;;;;;;5094167;28;20416;-81
2021/05/26 05:21:08;;;;;;;2.30;1.90;;;9.90;99.90;;;;;;5094698;28;20147;-81
2021/05/26 05:23:34;;;;;;;1.60;1.50;;;9.80;99.90;;;;;;5090563;28;20167;-81
2021/05/26 05:26:01;;;;;;;3.63;1.90;;;10.00;99.90;;;;;;5081103;28;20519;-81
2021/05/26 05:28:27;;;;;;;6.53;2.13;;;9.80;99.90;;;;;;5080075;28;20520;-81
2021/05/26 05:30:53;;;;;;;3.90;1.90;;;10.10;99.90;;;;;;5081970;28;20389;-81
2021/05/26 05:33:18;;;;;;;3.37;1.87;;;10.00;99.90;;;;;;5082425;28;20718;-82
2021/05/26 05:35:44;;;;;;;3.47;1.90;;;9.90;99.90;;;;;;5081380;28;20301;-81
2021/05/26 05:38:10;;;;;;;7.40;2.03;;;9.90;99.90;;;;;;5068685;28;20163;-80
2021/05/26 05:40:36;;;;;;;2.33;1.43;;;10.00;99.90;;;;;;5088631;28;20179;-81
2021/05/26 05:43:02;;;;;;;2.37;1.67;;;10.20;99.90;;;;;;5069666;28;20176;-81
2021/05/26 05:45:27;;;;;;;3.00;2.20;;;10.30;99.90;;;;;;5061877;28;20176;-81
2021/05/26 05:47:53;;;;;;;2.07;1.97;;;10.50;99.90;;;;;;5064301;28;20179;-81
2021/05/26 05:50:19;;;;;;;4.53;2.10;;;10.40;99.90;;;;;;5080296;28;20168;-82
2021/05/26 05:52:49;;;;;;;4.13;2.63;;;10.50;99.90;;;;;;5082421;28;20183;-81
2021/05/26 05:55:16;;;;;;;3.30;1.77;;;10.50;99.90;;;;;;5081495;28;20167;-81
2021/05/26 05:57:42;;;;;;;3.30;2.40;;;10.50;99.90;;;;;;5065791;28;20415;-81
2021/05/26 06:00:09;;;;;;;3.63;2.07;;;10.50;99.90;;;;;;5075862;28;20429;-81
2021/05/26 06:02:35;;;;;;;5.13;1.93;;;10.60;99.90;;;;;;5079291;28;20464;-81
2021/05/26 06:05:01;;;;;;;2.97;1.90;;;10.60;99.90;;;;;;5080457;28;20425;-82
2021/05/26 06:07:27;;;;;;;3.47;1.90;;;10.70;99.90;;;;;;5069655;28;20259;-81
2021/05/26 06:09:53;;;;;;;3.10;2.03;;;10.80;99.90;;;;;;5063817;28;20179;-81
2021/05/26 06:12:19;;;;;;;2.00;1.57;;;10.70;99.90;;;;;;5066199;28;20163;-81
2021/05/26 06:14:46;;;;;;;3.43;2.13;;;10.70;99.90;;;;;;5082058;28;20171;-80
2021/05/26 06:17:13;;;;;;;2.70;2.00;;;10.70;99.90;;;;;;5072906;28;20407;-80
2021/05/26 06:19:39;;;;;;;8.43;2.10;;;10.90;99.90;;;;;;5072574;28;20417;-80
2021/05/26 06:22:05;;;;;;;4.53;2.07;;;11.10;99.90;;;;;;5084068;28;20398;-80
2021/05/26 06:24:31;;;;;;;2.80;2.50;;;11.40;99.90;;;;;;5084603;28;20401;-80
2021/05/26 06:26:57;;;;;;;3.50;1.43;;;11.90;99.90;;;;;;5083969;28;20159;-80
2021/05/26 06:29:23;;;;;;;2.60;1.73;;;12.10;99.90;;;;;;5070767;28;20196;-80
2021/05/26 06:31:49;;;;;;;7.23;2.30;;;12.40;99.90;;;;;;5075742;28;20418;-80
2021/05/26 06:34:15;;;;;;;1.83;1.70;;;11.90;99.90;;;;;;5079910;28;20172;-80
2021/05/26 06:36:41;;;;;;;3.00;1.97;;;11.90;99.90;;;;;;5075401;28;20825;-80
2021/05/26 06:39:07;;;;;;;1.80;1.70;;;12.20;99.90;;;;;;5063182;28;20192;-80
2021/05/26 06:41:33;;;;;;;1.70;1.60;;;12.50;99.90;;;;;;5082951;28;20179;-79
2021/05/26 06:43:59;;;;;;;1.97;1.60;;;12.60;99.90;;;;;;5065244;28;20727;-79
2021/05/26 06:46:27;;;;;;;2.73;1.77;;;12.70;99.90;;;;;;5070934;28;20209;-81
2021/05/26 06:48:53;;;;;;;3.27;2.20;;;13.60;99.90;;;;;;5068300;28;20450;-81
2021/05/26 06:51:19;;;;;;;4.43;2.40;;;13.70;99.90;;;;;;5074792;28;20428;-80
2021/05/26 06:53:45;;;;;;;3.00;1.77;;;13.30;99.90;;;;;;5072327;28;20580;-80
2021/05/26 06:56:11;;;;;;;4.37;1.80;;;13.30;99.90;;;;;;5079613;28;20609;-80
2021/05/26 06:58:39;;;;;;;5.60;2.30;;;13.60;99.90;;;;;;5057047;28;20468;-82
2021/05/26 07:01:05;;;;;;;1.97;1.73;;;12.80;99.90;;;;;;5065501;28;20251;-81
2021/05/26 07:03:31;;;;;;;2.50;1.97;;;12.40;99.90;;;;;;5080481;28;20761;-82
2021/05/26 07:05:56;;;;;;;2.13;1.87;;;12.20;99.90;;;;;;5084441;28;20402;-82
2021/05/26 07:08:22;;;;;;;2.93;2.10;;;11.90;99.90;;;;;;5085164;28;20274;-82
2021/05/26 07:11:30;;;;;;;1.97;1.87;;;11.80;99.90;;;;;;5105033;28;20173;-82
2021/05/26 07:13:56;;;;;;;2.00;1.80;;;12.00;99.90;;;;;;5076260;28;20400;-82
2021/05/26 07:16:22;;;;;;;2.70;2.00;;;12.10;99.90;;;;;;5056316;28;20429;-82
2021/05/26 07:18:48;;;;;;;2.93;2.10;;;11.80;99.90;;;;;;5076197;28;20180;-80
2021/05/26 07:21:15;;;;;;;5.80;1.60;;;11.90;99.90;;;;;;5071491;28;20560;-80
2021/05/26 07:23:44;;;;;;;2.30;2.00;;;11.80;99.90;;;;;;5078493;28;20769;-80
2021/05/26 07:26:10;;;;;;;2.40;1.93;;;11.80;99.90;;;;;;5087598;28;20429;-78
2021/05/26 07:28:37;;;;;;;3.80;2.00;;;11.80;99.90;;;;;;5083168;28;20464;-78
2021/05/26 07:31:04;;;;;;;4.10;3.23;;;11.90;99.90;;;;;;5095294;28;20413;-80
2021/05/26 07:33:30;;;;;;;6.43;1.97;;;11.90;99.90;;;;;;5106633;28;20407;-81
2021/05/26 07:35:56;;;;;;;2.67;1.63;;;12.00;99.90;;;;;;5107656;28;20405;-79
2021/05/26 07:38:22;;;;;;;1.90;1.43;;;11.90;99.90;;;;;;5094100;28;20438;-79
2021/05/26 07:40:48;;;;;;;3.23;1.57;;;11.80;99.90;;;;;;5076654;28;20179;-78
2021/05/26 07:43:14;;;;;;;2.37;2.17;;;12.00;99.90;;;;;;5071010;28;20234;-79
2021/05/26 07:45:40;;;;;;;3.20;2.43;;;11.80;99.90;;;;;;5081467;28;20806;-79
2021/05/26 07:48:07;;;;;;;8.30;1.80;;;11.90;99.90;;;;;;5087514;28;20445;-78
2021/05/26 07:50:35;;;;;;;2.87;2.27;;;12.20;99.90;;;;;;5086897;28;20477;-81
2021/05/26 07:53:03;;;;;;;5.13;1.77;;;12.50;99.90;;;;;;5087864;28;20410;-81
2021/05/26 07:55:29;;;;;;;3.30;2.60;;;12.60;99.90;;;;;;5089975;28;20414;-80
2021/05/26 07:57:56;;;;;;;7.63;1.87;;;12.50;99.90;;;;;;5094747;28;20415;-81
2021/05/26 08:00:23;;;;;;;3.33;1.67;;;12.00;99.90;;;;;;5091114;28;20444;-81
2021/05/26 08:02:51;;;;;;;2.50;1.67;;;12.20;99.90;;;;;;5088120;28;20497;-81
2021/05/26 08:05:18;;;;;;;1.50;1.40;;;12.20;99.90;;;;;;5080563;28;20407;-82
2021/05/26 08:07:44;;;;;;;3.83;2.73;;;12.30;99.90;;;;;;5069849;28;20472;-82
2021/05/26 08:10:12;;;;;;;2.83;2.63;;;12.30;99.90;;;;;;5084085;28;20417;-82
2021/05/26 08:12:41;;;;;;;1.60;1.50;;;12.50;99.90;;;;;;5075233;28;20479;-82
2021/05/26 08:15:08;;;;;;;2.90;1.57;;;12.60;99.90;;;;;;5070140;28;20421;-81
2021/05/26 08:17:34;;;;;;;1.60;1.50;;;12.80;99.90;;;;;;5075827;28;20422;-81
2021/05/26 08:20:01;;;;;;;2.67;1.60;;;12.90;99.90;;;;;;5037553;28;20437;-80
2021/05/26 08:22:28;;;;;;;3.00;1.50;;;12.70;99.90;;;;;;5075650;28;20443;-80
2021/05/26 08:24:54;;;;;;;2.37;1.37;;;12.20;99.90;;;;;;5069161;28;20420;-81
2021/05/26 08:27:20;;;;;;;3.33;1.93;;;12.20;99.90;;;;;;5073724;28;20410;-81
2021/05/26 08:29:46;;;;;;;2.00;1.90;;;12.10;99.90;;;;;;5079607;28;20415;-81
2021/05/26 08:32:12;;;;;;;4.43;1.50;;;12.10;99.90;;;;;;5071743;28;20953;-80
2021/05/26 08:34:37;;;;;;;1.90;1.70;;;12.40;99.90;;;;;;5081452;28;20498;-79
2021/05/26 08:37:03;;;;;;;2.20;1.83;;;12.30;99.90;;;;;;5074721;28;20242;-80
2021/05/26 08:39:34;;;;;;;2.03;1.43;;;12.00;99.90;;;;;;5077722;28;20250;-81
2021/05/26 08:42:02;;;;;;;4.03;2.30;;;12.00;99.90;;;;;;5084614;28;20159;-81
2021/05/26 08:44:28;;;;;;;1.60;1.20;;;12.10;99.90;;;;;;5082711;28;20453;-80
2021/05/26 08:46:54;;;;;;;2.83;1.60;;;11.80;99.90;;;;;;5036532;28;20468;-81
2021/05/26 08:49:21;;;;;;;3.07;2.23;;;11.70;99.90;;;;;;5067477;28;20522;-81
2021/05/26 08:51:47;;;;;;;1.80;1.70;;;11.70;99.90;;;;;;5067202;28;20449;-81
2021/05/26 08:54:15;;;;;;;2.77;1.80;;;11.90;99.90;;;;;;5077970;28;20418;-81
2021/05/26 08:56:46;;;;;;;1.90;1.50;;;11.80;99.90;;;;;;5068900;28;20171;-81
2021/05/26 08:59:16;;;;;;;1.87;1.77;;;11.60;99.90;;;;;;5080870;28;20918;-81
2021/05/26 09:01:48;;;;;;;2.17;1.87;;;11.90;99.90;;;;;;5076356;28;20421;-80
2021/05/26 09:04:30;;;;;;;7.67;1.57;;;12.10;99.90;;;;;;5068255;28;20418;-79
2021/05/26 09:07:10;;;;;;;2.67;1.50;;;12.40;99.90;;;;;;5066096;28;20386;-80
2021/05/26 09:09:53;;;;;;;1.90;1.80;;;12.50;99.90;;;;;;5082159;28;20445;-79
2021/05/26 09:12:31;;;;;;;2.13;1.40;;;12.40;99.90;;;;;;5068504;28;20452;-80
2021/05/26 09:15:11;;;;;;;2.80;1.70;;;12.80;99.90;;;;;;5072511;28;20492;-80
2021/05/26 09:17:43;;;;;;;1.63;1.20;;;12.90;99.90;;;;;;5068136;28;20903;-81
2021/05/26 09:20:13;;;;;;;1.57;1.47;;;12.50;99.90;;;;;;5061760;28;20421;-82
2021/05/26 09:22:41;;;;;;;4.50;1.70;;;12.20;99.90;;;;;;5069748;28;20717;-81
2021/05/26 09:25:08;;;;;;;2.20;1.70;;;12.20;99.90;;;;;;5061766;28;20426;-81
2021/05/26 09:27:34;;;;;;;4.50;1.90;;;12.50;99.90;;;;;;5073229;28;20409;-81
2021/05/26 09:30:00;;;;;;;1.47;1.37;;;12.60;99.90;;;;;;5078017;28;20521;-80
2021/05/26 09:32:29;;;;;;;3.63;1.47;;;12.70;99.90;;;;;;5066497;28;20419;-81
2021/05/26 09:34:57;;;;;;;3.10;1.60;;;12.60;99.90;;;;;;5065342;28;20168;-82
2021/05/26 09:37:26;;;;;;;1.70;1.47;;;12.70;99.90;;;;;;5077819;28;20895;-82
2021/05/26 09:40:06;;;;;;;1.63;1.53;;;12.40;99.90;;;;;;5065276;28;20430;-81
2021/05/26 09:42:36;;;;;;;1.33;1.23;;;12.20;99.90;;;;;;5076790;28;20422;-82
2021/05/26 09:45:10;;;;;;;1.20;1.10;;;12.40;99.90;;;;;;5061810;28;20856;-82
2021/05/26 09:47:37;;;;;;;2.33;1.50;;;12.20;99.90;;;;;;5078052;28;20425;-80
2021/05/26 09:50:24;;;;;;;1.70;1.60;;;11.90;99.90;;;;;;5071732;28;20428;-80
2021/05/26 09:53:03;;;;;;;1.57;1.10;;;11.70;99.90;;;;;;5070672;28;20417;-80
2021/05/26 09:55:35;;;;;;;1.80;1.40;;;12.00;99.90;;;;;;5070596;28;20510;-79
2021/05/26 09:58:03;;;;;;;1.23;1.13;;;12.10;99.90;;;;;;5079055;28;20451;-80
2021/05/26 10:00:30;;;;;;;1.43;1.33;;;12.30;99.90;;;;;;5062049;28;20476;-80
2021/05/26 10:02:56;;;;;;;1.37;1.27;;;12.30;99.90;;;;;;5074894;28;20409;-81
2021/05/26 10:05:24;;;;;;;1.20;1.10;;;12.50;99.90;;;;;;5066203;28;20425;-81
2021/05/26 10:07:52;;;;;;;1.70;1.20;;;12.50;99.90;;;;;;5079469;28;21048;-82
2021/05/26 10:10:20;;;;;;;1.47;1.30;;;12.50;99.90;;;;;;5066022;28;20168;-82
2021/05/26 10:12:53;;;;;;;2.67;1.60;;;12.30;99.90;;;;;;5060806;28;20493;-81
2021/05/26 10:15:20;;;;;;;2.23;1.63;;;12.60;99.90;;;;;;5077105;28;20410;-82
2021/05/26 10:17:50;;;;;;;1.63;1.50;;;12.20;99.90;;;;;;5077464;28;20500;-82
2021/05/26 10:20:18;;;;;;;1.20;1.10;;;12.10;99.90;;;;;;5084342;28;20769;-81
2021/05/26 10:22:45;;;;;;;1.30;1.20;;;12.00;99.90;;;;;;5074330;28;20727;-81
2021/05/26 10:25:13;;;;;;;2.13;1.60;;;12.00;99.90;;;;;;5052239;28;20870;-78
2021/05/26 10:27:55;;;;;;;1.33;1.23;;;12.00;99.90;;;;;;5049933;28;20860;-80
2021/05/26 10:30:26;;;;;;;1.83;1.20;;;12.00;99.90;;;;;;5065339;28;20407;-81
2021/05/26 10:32:59;;;;;;;1.60;1.50;;;12.20;99.90;;;;;;5071174;28;20495;-82
2021/05/26 10:35:27;;;;;;;1.73;1.30;;;12.00;99.90;;;;;;5068144;28;20568;-81
2021/05/26 10:38:02;;;;;;;1.30;1.20;;;12.10;99.90;;;;;;5063834;28;20449;-80
2021/05/26 10:40:34;;;;;;;1.37;1.10;;;12.00;99.90;;;;;;5075144;28;20445;-81
2021/05/26 10:43:26;;;;;;;3.10;1.33;;;12.20;99.90;;;;;;5070713;28;20406;-80
2021/05/26 10:45:55;;;;;;;1.40;1.30;;;12.30;99.90;;;;;;5075446;28;20419;-80
2021/05/26 10:48:57;;;;;;;2.33;1.23;;;12.30;99.90;;;;;;5079539;28;20463;-80
2021/05/26 10:51:58;;;;;;;5.60;1.33;;;12.20;99.90;;;;;;5086157;28;20434;-79
2021/05/26 10:54:56;;;;;;;1.70;1.10;;;12.50;99.90;;;;;;5076055;28;20410;-81
2021/05/26 10:57:22;;;;;;;1.27;1.10;;;12.70;99.90;;;;;;5071914;28;20410;-81
2021/05/26 11:00:22;;;;;;;1.23;1.13;;;12.60;99.90;;;;;;5088258;28;20434;-82
2021/05/26 11:03:28;;;;;;;7.40;1.80;;;12.60;99.90;;;;;;5077922;28;20275;-83
2021/05/26 11:05:56;;;;;;;1.60;1.20;;;12.20;99.90;;;;;;5059696;28;20411;-83
2021/05/26 11:08:45;;;;;;;1.33;1.20;;;12.30;99.90;;;;;;5071660;28;20464;-83
2021/05/26 11:11:40;;;;;;;1.63;1.20;;;12.20;99.90;;;;;;5048280;28;20452;-82
2021/05/26 11:14:26;;;;;;;1.40;1.30;;;12.20;99.90;;;;;;5066935;28;20497;-83
2021/05/26 11:17:18;;;;;;;2.23;1.50;;;12.60;99.90;;;;;;5043678;28;20429;-82
2021/05/26 11:19:45;;;;;;;1.37;1.27;;;12.60;99.90;;;;;;5064584;28;20488;-83
2021/05/26 11:22:12;;;;;;;4.13;1.43;;;12.40;99.90;;;;;;5044050;28;20419;-83
2021/05/26 11:24:41;;;;;;;1.30;1.20;;;12.70;99.90;;;;;;5069663;28;20426;-83
2021/05/26 11:27:21;;;;;;;1.57;1.30;;;13.10;99.90;;;;;;5071858;28;20418;-83
2021/05/26 11:29:51;;;;;;;2.27;1.20;;;13.40;99.90;;;;;;5047078;28;20450;-82
2021/05/26 11:32:21;;;;;;;3.17;1.50;;;13.40;99.90;;;;;;5077757;28;20449;-83
2021/05/26 11:34:49;;;;;;;1.30;1.20;;;13.20;99.90;;;;;;5045354;28;20490;-83
2021/05/26 11:37:32;;;;;;;1.50;1.40;;;13.00;99.90;;;;;;5094953;28;20545;-81
2021/05/26 11:40:01;;;;;;;1.40;1.20;;;13.40;99.90;;;;;;5085014;28;20403;-82
2021/05/26 11:42:29;;;;;;;5.20;1.87;;;12.90;99.90;;;;;;5077732;28;20414;-82
2021/05/26 11:45:14;;;;;;;1.40;1.30;;;12.70;99.90;;;;;;5071742;28;20804;-82
2021/05/26 11:47:44;;;;;;;1.30;1.20;;;12.90;99.90;;;;;;5079156;28;20405;-83
2021/05/26 11:50:22;;;;;;;1.10;1.00;;;12.80;99.90;;;;;;5075078;28;20414;-80
2021/05/26 11:52:50;;;;;;;1.37;1.23;;;12.60;99.90;;;;;;5073675;28;20442;-83
2021/05/26 11:55:18;;;;;;;1.23;1.13;;;12.50;99.90;;;;;;5060597;28;20425;-80
2021/05/26 11:57:46;;;;;;;1.20;1.10;;;12.80;99.90;;;;;;5060803;28;20407;-81
2021/05/26 12:00:30;;;;;;;2.57;1.30;;;12.70;99.90;;;;;;5079959;28;20486;-81
2021/05/26 12:03:01;;;;;;;1.40;1.30;;;12.60;99.90;;;;;;5068355;28;20425;-84
2021/05/26 12:05:39;;;;;;;1.63;1.27;;;12.80;99.90;;;;;;5074085;28;20417;-83
2021/05/26 12:08:15;;;;;;;1.57;1.40;;;13.00;99.90;;;;;;5075377;28;20482;-82
2021/05/26 12:10:42;;;;;;;1.20;1.10;;;13.10;99.90;;;;;;5067578;28;20429;-82
2021/05/26 12:13:08;;;;;;;1.47;1.37;;;13.10;99.90;;;;;;5032166;28;20445;-81
2021/05/26 12:15:34;;;;;;;1.73;1.63;;;13.10;99.90;;;;;;5074744;28;20431;-82
2021/05/26 12:18:00;;;;;;;1.37;1.20;;;13.30;99.90;;;;;;5079779;28;20830;-81
2021/05/26 12:20:26;;;;;;;1.53;1.40;;;13.20;99.90;;;;;;5080421;28;20164;-81
2021/05/26 12:22:55;;;;;;;1.30;1.20;;;13.20;99.90;;;;;;5085437;28;20501;-82
2021/05/26 12:25:21;;;;;;;1.20;1.10;;;13.50;99.90;;;;;;5089016;28;20398;-82
2021/05/26 12:27:53;;;;;;;1.50;1.40;;;13.60;99.90;;;;;;5080637;28;20881;-83
2021/05/26 12:30:24;;;;;;;1.30;1.20;;;13.90;99.90;;;;;;5078555;28;20417;-83
2021/05/26 12:32:52;;;;;;;1.20;1.10;;;14.00;99.90;;;;;;5078256;28;20398;-82
2021/05/26 12:35:21;;;;;;;1.60;1.23;;;14.20;99.90;;;;;;5078799;28;20469;-82
2021/05/26 12:37:49;;;;;;;2.10;1.90;;;13.90;99.90;;;;;;5078395;28;20424;-83
2021/05/26 12:40:36;;;;;;;1.40;1.30;;;13.40;99.90;;;;;;5078474;28;20401;-83
2021/05/26 12:43:02;;;;;;;1.10;1.00;;;13.40;99.90;;;;;;5080011;28;20390;-81
2021/05/26 12:45:30;;;;;;;1.40;1.30;;;13.50;99.90;;;;;;5080120;28;20390;-82
2021/05/26 12:47:58;;;;;;;1.53;1.30;;;13.50;99.90;;;;;;5079732;28;20440;-80
2021/05/26 12:50:28;;;;;;;17.53;1.53;;;13.20;99.90;;;;;;5079231;28;20398;-81
2021/05/26 12:53:06;;;;;;;1.20;1.10;;;13.60;99.90;;;;;;5077077;28;20475;-81
2021/05/26 12:55:34;;;;;;;3.40;1.10;;;13.70;99.90;;;;;;5079475;28;20856;-80
2021/05/26 12:58:02;;;;;;;2.90;1.20;;;13.30;99.90;;;;;;5079897;28;20417;-80